Time;durP1;ratioP1;P1;durP2;ratioP2;P2;SDS_P1;SDS_P2;PMS_P1;PMS_P2;Temp;Humidity;BMP_temperature;BMP_pressure;BME280_temperature;BME280_humidity;BME280_pressure;Samples;Min_cycle;Max_cycle;Signal;HPM_P1;HPM_P2
2023/07/15 00:01:34;;;;;;;6.60;3.10;;;;;;;16.95;100.00;100889.77;105418;1262;72628;-45
2023/07/15 00:04:02;;;;;;;4.80;2.60;;;;;;;16.91;100.00;100892.16;105472;1260;60491;-45
2023/07/15 00:06:31;;;;;;;6.60;2.80;;;;;;;16.88;100.00;100892.47;105547;1257;60408;-45
2023/07/15 00:08:59;;;;;;;7.70;3.30;;;;;;;16.83;100.00;100893.69;105438;1257;72606;-44
2023/07/15 00:11:29;;;;;;;6.30;3.20;;;;;;;16.80;100.00;100899.17;105460;1258;65303;-43
2023/07/15 00:13:57;;;;;;;5.10;2.70;;;;;;;16.78;100.00;100896.49;105451;1263;71463;-44
2023/07/15 00:16:26;;;;;;;7.80;2.90;;;;;;;16.75;100.00;100895.39;105416;1264;61812;-43
2023/07/15 00:18:54;;;;;;;9.80;3.10;;;;;;;16.71;100.00;100893.95;105413;1257;60559;-43
2023/07/15 00:21:24;;;;;;;4.40;2.80;;;;;;;16.68;100.00;100893.89;105428;1263;72882;-44
2023/07/15 00:23:55;;;;;;;11.70;3.10;;;;;;;16.63;100.00;100898.42;105494;1265;64259;-43
2023/07/15 00:26:25;;;;;;;5.60;2.70;;;;;;;16.60;100.00;100903.61;105519;1260;71464;-44
2023/07/15 00:28:53;;;;;;;4.20;2.30;;;;;;;16.55;100.00;100901.33;105406;1263;60924;-43
2023/07/15 00:31:23;;;;;;;7.70;2.40;;;;;;;16.51;100.00;100899.05;105444;1272;60432;-45
2023/07/15 00:33:50;;;;;;;7.10;2.60;;;;;;;16.45;100.00;100905.88;105271;1264;73843;-45
2023/07/15 00:36:19;;;;;;;8.50;2.10;;;;;;;16.38;100.00;100906.80;105418;1263;65270;-43
2023/07/15 00:38:47;;;;;;;9.60;2.80;;;;;;;16.34;100.00;100904.52;105396;1260;71723;-43
2023/07/15 00:41:32;;;;;;;12.40;2.80;;;;;;;16.32;100.00;100899.90;105273;1263;61664;-43
2023/07/15 00:44:03;;;;;;;3.40;2.40;;;;;;;16.30;100.00;100893.67;105432;1262;60447;-45
2023/07/15 00:46:54;;;;;;;7.50;2.40;;;;;;;16.31;100.00;100900.61;105457;1262;72636;-44
2023/07/15 00:49:29;;;;;;;10.40;2.80;;;;;;;16.33;100.00;100906.14;105263;1265;63919;-42
2023/07/15 00:52:11;;;;;;;7.80;2.50;;;;;;;16.32;100.00;100900.05;105438;1263;71602;-44
2023/07/15 00:54:41;;;;;;;6.20;2.60;;;;;;;16.30;100.00;100897.88;105428;1273;60445;-44
2023/07/15 00:57:10;;;;;;;3.40;2.40;;;;;;;16.25;100.00;100897.50;105446;1257;60353;-43
2023/07/15 00:59:39;;;;;;;4.60;2.80;;;;;;;16.19;100.00;100896.49;105433;1260;73817;-43
2023/07/15 01:02:11;;;;;;;2.80;2.30;;;;;;;16.15;100.00;100892.63;105440;1263;65220;-44
2023/07/15 01:04:39;;;;;;;8.60;2.90;;;;;;;16.12;100.00;100890.32;105411;1263;70558;-44
2023/07/15 01:07:07;;;;;;;5.00;2.70;;;;;;;16.10;100.00;100888.45;105434;1257;60963;-44
2023/07/15 01:09:36;;;;;;;9.10;3.00;;;;;;;16.08;100.00;100885.21;105401;1257;60347;-45
2023/07/15 01:12:05;;;;;;;4.50;2.60;;;;;;;16.07;100.00;100885.77;105248;1257;72590;-44
2023/07/15 01:14:35;;;;;;;3.10;2.60;;;;;;;16.05;100.00;100886.90;105404;1271;65163;-45
2023/07/15 01:17:05;;;;;;;6.50;2.50;;;;;;;16.01;100.00;100888.75;105504;1263;71887;-45
2023/07/15 01:19:33;;;;;;;6.50;2.80;;;;;;;16.01;100.00;100884.61;105419;1264;60526;-45
2023/07/15 01:22:03;;;;;;;4.60;3.10;;;;;;;16.01;100.00;100883.00;105416;1259;60386;-44
2023/07/15 01:24:31;;;;;;;5.60;2.90;;;;;;;16.00;100.00;100881.67;105408;1262;72675;-45
2023/07/15 01:27:05;;;;;;;5.40;2.40;;;;;;;15.97;100.00;100882.64;105403;1263;65272;-43
2023/07/15 01:29:33;;;;;;;6.40;2.90;;;;;;;15.93;100.00;100881.19;105322;1261;70984;-43
2023/07/15 01:32:01;;;;;;;8.20;2.50;;;;;;;15.90;100.00;100880.41;105454;1261;60451;-44
2023/07/15 01:34:30;;;;;;;8.70;2.30;;;;;;;15.89;100.00;100881.84;105439;1263;60441;-44
2023/07/15 01:37:00;;;;;;;8.00;2.50;;;;;;;15.88;100.00;100882.57;105418;1263;72698;-44
2023/07/15 01:39:27;;;;;;;5.20;2.40;;;;;;;15.88;100.00;100879.96;105262;1265;65149;-45
2023/07/15 01:41:58;;;;;;;4.50;2.70;;;;;;;15.85;100.00;100882.83;105453;1258;71977;-43
2023/07/15 01:44:26;;;;;;;11.50;2.90;;;;;;;15.84;100.00;100880.25;105428;1261;60495;-44
2023/07/15 01:46:54;;;;;;;6.90;2.40;;;;;;;15.84;100.00;100884.26;105439;1259;60344;-45
2023/07/15 01:49:22;;;;;;;8.80;2.50;;;;;;;15.82;100.00;100880.86;105469;1258;72480;-44
2023/07/15 01:51:51;;;;;;;6.90;2.40;;;;;;;15.80;100.00;100884.92;105415;1264;65336;-45
2023/07/15 01:54:20;;;;;;;8.50;2.40;;;;;;;15.78;100.00;100883.05;105487;1263;72639;-45
2023/07/15 01:56:51;;;;;;;7.00;2.60;;;;;;;15.77;100.00;100884.84;105217;1265;61868;-43
2023/07/15 01:59:18;;;;;;;6.80;2.00;;;;;;;15.75;100.00;100889.41;105264;1264;60384;-44
2023/07/15 02:01:46;;;;;;;6.20;2.40;;;;;;;15.73;100.00;100891.23;105443;1257;72698;-42
2023/07/15 02:04:15;;;;;;;3.10;2.30;;;;;;;15.72;100.00;100897.52;105419;1263;65141;-44
2023/07/15 02:06:43;;;;;;;9.60;2.50;;;;;;;15.71;100.00;100902.60;105436;1259;71476;-44
2023/07/15 02:09:12;;;;;;;6.70;2.30;;;;;;;15.69;100.00;100902.67;105481;1260;60495;-43
2023/07/15 02:11:40;;;;;;;4.60;2.20;;;;;;;15.66;100.00;100903.28;105376;1257;60419;-44
2023/07/15 02:14:10;;;;;;;10.10;2.50;;;;;;;15.65;100.00;100906.42;105257;1263;73813;-43
2023/07/15 02:16:38;;;;;;;7.80;2.80;;;;;;;15.66;100.00;100907.46;105289;1264;65517;-44
2023/07/15 02:19:06;;;;;;;4.00;2.20;;;;;;;15.67;100.00;100906.03;105259;1257;72728;-45
2023/07/15 02:21:34;;;;;;;7.40;1.80;;;;;;;15.71;100.00;100907.33;105467;1263;60538;-44
2023/07/15 02:24:03;;;;;;;4.80;2.00;;;;;;;15.72;100.00;100909.38;105469;1263;60347;-45
2023/07/15 02:26:32;;;;;;;5.10;2.10;;;;;;;15.71;100.00;100910.94;105255;1263;72651;-44
2023/07/15 02:29:00;;;;;;;6.60;2.50;;;;;;;15.71;100.00;100912.34;105492;1263;63959;-42
2023/07/15 02:31:27;;;;;;;8.10;2.10;;;;;;;15.72;100.00;100911.64;105409;1261;70837;-43
2023/07/15 02:33:56;;;;;;;5.30;2.40;;;;;;;15.72;100.00;100911.29;105415;1261;60684;-43
2023/07/15 02:36:23;;;;;;;3.70;1.90;;;;;;;15.72;100.00;100915.28;105495;1257;60530;-44
2023/07/15 02:38:51;;;;;;;2.80;1.70;;;;;;;15.72;100.00;100917.16;105221;1257;72915;-44
2023/07/15 02:41:19;;;;;;;4.00;2.10;;;;;;;15.76;100.00;100921.06;105524;1257;65214;-42
2023/07/15 02:43:47;;;;;;;3.70;2.30;;;;;;;15.81;100.00;100924.38;105406;1263;70946;-43
2023/07/15 02:46:15;;;;;;;5.60;2.50;;;;;;;15.86;100.00;100930.33;105455;1263;60477;-42
2023/07/15 02:48:43;;;;;;;4.50;2.10;;;;;;;15.89;100.00;100938.77;105524;1262;60448;-43
2023/07/15 02:51:11;;;;;;;6.50;2.50;;;;;;;15.93;100.00;100939.69;105454;1263;72865;-44
2023/07/15 02:53:42;;;;;;;3.90;2.30;;;;;;;15.99;100.00;100942.80;105262;1259;63910;-45
2023/07/15 02:56:10;;;;;;;6.70;2.20;;;;;;;16.04;100.00;100948.19;105222;1264;71455;-44
2023/07/15 02:58:40;;;;;;;7.00;2.30;;;;;;;16.09;100.00;100958.98;105459;1263;60789;-42
2023/07/15 03:01:08;;;;;;;6.40;1.90;;;;;;;16.16;100.00;100967.31;105438;1264;60418;-45
2023/07/15 03:03:38;;;;;;;3.70;2.30;;;;;;;16.22;100.00;100976.16;105507;1257;72650;-43
2023/07/15 03:06:06;;;;;;;2.70;1.70;;;;;;;16.28;100.00;100981.71;105454;1263;64030;-43
2023/07/15 03:08:34;;;;;;;5.50;2.10;;;;;;;16.32;100.00;100986.09;105447;1259;71392;-43
2023/07/15 03:11:01;;;;;;;8.70;2.50;;;;;;;16.37;100.00;100998.11;105204;1264;60589;-43
2023/07/15 03:13:31;;;;;;;6.80;2.10;;;;;;;16.42;100.00;101004.73;105330;1263;60381;-44
2023/07/15 03:15:59;;;;;;;6.80;2.10;;;;;;;16.49;100.00;101016.52;105437;1257;73895;-44
2023/07/15 03:18:28;;;;;;;2.30;1.90;;;;;;;16.54;100.00;101017.23;105417;1264;63939;-42
2023/07/15 03:20:56;;;;;;;6.80;2.10;;;;;;;16.62;100.00;101028.10;105418;1261;71495;-43
2023/07/15 03:23:24;;;;;;;2.30;2.10;;;;;;;16.70;100.00;101036.35;105228;1263;60854;-44
2023/07/15 03:25:52;;;;;;;7.90;2.60;;;;;;;16.78;100.00;101040.59;105506;1262;60573;-43
2023/07/15 03:28:22;;;;;;;3.40;2.10;;;;;;;16.86;100.00;101046.80;105405;1261;73860;-44
2023/07/15 03:30:50;;;;;;;2.20;2.00;;;;;;;16.93;100.00;101052.98;105396;1263;63915;-43
2023/07/15 03:33:19;;;;;;;7.70;2.00;;;;;;;17.01;100.00;101057.79;105418;1264;71830;-44
2023/07/15 03:35:47;;;;;;;3.20;2.00;;;;;;;17.08;100.00;101058.58;105469;1263;61656;-44
2023/07/15 03:38:15;;;;;;;5.70;2.00;;;;;;;17.18;100.00;101062.60;105433;1257;60420;-42
2023/07/15 03:40:42;;;;;;;3.00;2.30;;;;;;;17.26;100.00;101068.75;105505;1257;73898;-43
2023/07/15 03:43:11;;;;;;;8.30;2.20;;;;;;;17.35;100.00;101077.14;105468;1257;64341;-45
2023/07/15 03:45:39;;;;;;;9.00;2.30;;;;;;;17.43;100.00;101081.20;105512;1261;72700;-44
2023/07/15 03:48:06;;;;;;;4.00;2.40;;;;;;;17.53;100.00;101078.55;105431;1261;61665;-42
2023/07/15 03:50:35;;;;;;;3.30;2.20;;;;;;;17.64;100.00;101069.77;105486;1257;60519;-44
2023/07/15 03:53:03;;;;;;;7.80;2.30;;;;;;;17.78;100.00;101062.96;105522;1258;72577;-43
2023/07/15 03:55:30;;;;;;;4.10;1.90;;;;;;;17.97;100.00;101056.63;105497;1262;64007;-44
2023/07/15 03:57:58;;;;;;;6.70;2.10;;;;;;;18.20;100.00;101050.15;105482;1257;72623;-43
2023/07/15 04:00:26;;;;;;;7.60;2.10;;;;;;;18.43;100.00;101033.34;105461;1259;60439;-43
2023/07/15 04:02:55;;;;;;;6.60;2.20;;;;;;;18.64;100.00;101004.13;105529;1257;60368;-46
2023/07/15 04:05:22;;;;;;;4.70;2.20;;;;;;;18.88;100.00;100981.02;105511;1257;72534;-45
2023/07/15 04:07:50;;;;;;;3.50;2.30;;;;;;;19.08;100.00;100938.52;105431;1263;64031;-43
2023/07/15 04:10:18;;;;;;;2.50;2.10;;;;;;;19.25;100.00;100879.33;105558;1261;71431;-44
2023/07/15 04:12:46;;;;;;;7.50;2.30;;;;;;;19.39;100.00;100821.46;105477;1263;60474;-44
2023/07/15 04:15:13;;;;;;;16.80;2.50;;;;;;;19.46;100.00;100748.11;105430;1263;60355;-44
2023/07/15 04:17:41;;;;;;;12.60;2.70;;;;;;;19.55;100.00;100701.80;105438;1263;72979;-42
2023/07/15 04:20:14;;;;;;;13.50;2.30;;;;;;;19.66;100.00;100666.27;105440;1263;64882;-43
2023/07/15 04:22:42;;;;;;;9.40;2.50;;;;;;;19.76;100.00;100634.02;105519;1262;71447;-43
2023/07/15 04:25:14;;;;;;;4.30;2.00;;;;;;;19.97;100.00;100629.25;105418;1263;60470;-43
2023/07/15 04:27:42;;;;;;;5.40;2.20;;;;;;;20.16;100.00;100608.08;105510;1263;60358;-45
2023/07/15 04:30:11;;;;;;;9.30;2.30;;;;;;;20.28;100.00;100563.38;105447;1257;73835;-44
2023/07/15 04:32:39;;;;;;;3.10;2.30;;;;;;;20.36;100.00;100532.99;105482;1263;65154;-44
2023/07/15 04:35:07;;;;;;;7.40;3.00;;;;;;;20.43;100.00;100502.95;105492;1261;71403;-47
2023/07/15 04:37:35;;;;;;;2.60;2.00;;;;;;;20.52;100.00;100477.02;105474;1260;60486;-45
2023/07/15 04:40:04;;;;;;;7.50;2.20;;;;;;;20.60;100.00;100464.09;105497;1262;60353;-46
2023/07/15 04:42:31;;;;;;;3.40;2.00;;;;;;;20.65;100.00;100451.70;105665;1259;73803;-45
2023/07/15 04:44:59;;;;;;;2.70;2.00;;;;;;;20.75;100.00;100454.05;105675;1254;64393;-46
2023/07/15 04:47:27;;;;;;;13.30;2.20;;;;;;;20.93;100.00;100456.53;105614;1255;71454;-45
2023/07/15 04:49:55;;;;;;;5.40;2.00;;;;;;;21.15;100.00;100451.64;105617;1255;60441;-45
2023/07/15 04:52:23;;;;;;;2.40;2.10;;;;;;;21.31;100.00;100434.73;105629;1259;62153;-44
2023/07/15 04:54:51;;;;;;;5.80;2.50;;;;;;;21.38;100.00;100431.80;105651;1253;72619;-46
2023/07/15 04:57:19;;;;;;;6.40;2.10;;;;;;;21.54;100.00;100437.58;105631;1259;64029;-45
2023/07/15 04:59:48;;;;;;;3.70;2.30;;;;;;;21.77;100.00;100442.30;105574;1256;71447;-45
2023/07/15 05:02:16;;;;;;;6.70;2.20;;;;;;;21.96;100.00;100446.14;105627;1253;60479;-46
2023/07/15 05:04:44;;;;;;;6.80;1.90;;;;;;;22.07;100.00;100463.70;105627;1259;60502;-45
2023/07/15 05:07:12;;;;;;;4.60;2.30;;;;;;;22.19;100.00;100476.60;105668;1254;72813;-44
2023/07/15 05:09:40;;;;;;;6.20;2.20;;;;;;;22.33;100.00;100485.66;105649;1255;65211;-44
2023/07/15 05:12:10;;;;;;;11.90;2.30;;;;;;;22.29;100.00;100511.45;105605;1259;72643;-45
2023/07/15 05:14:37;;;;;;;7.40;2.70;;;;;;;22.29;100.00;100514.40;105621;1256;60535;-45
2023/07/15 05:17:05;;;;;;;4.80;2.90;;;;;;;22.35;100.00;100529.50;105657;1254;60340;-44
2023/07/15 05:19:33;;;;;;;7.90;2.70;;;;;;;22.44;100.00;100537.39;105629;1258;74272;-47
2023/07/15 05:22:01;;;;;;;5.50;3.00;;;;;;;22.45;100.00;100549.27;105679;1254;63935;-46
2023/07/15 05:24:29;;;;;;;5.00;3.50;;;;;;;22.40;100.00;100556.21;105684;1256;70962;-46
2023/07/15 05:26:57;;;;;;;8.90;3.20;;;;;;;22.55;100.00;100547.88;105686;1258;60587;-44
2023/07/15 05:29:25;;;;;;;6.40;3.10;;;;;;;22.76;100.00;100541.89;105673;1254;60617;-48
2023/07/15 05:31:52;;;;;;;14.30;3.50;;;;;;;22.91;100.00;100560.05;105635;1258;73803;-45
2023/07/15 05:34:21;;;;;;;9.90;3.20;;;;;;;22.83;100.00;100583.50;105632;1254;65262;-45
2023/07/15 05:36:49;;;;;;;10.40;3.00;;;;;;;22.85;100.00;100575.08;105638;1256;70825;-46
2023/07/15 05:39:19;;;;;;;8.30;3.20;;;;;;;23.05;100.00;100567.00;105665;1258;60547;-44
2023/07/15 05:41:50;;;;;;;6.40;3.40;;;;;;;23.24;100.00;100568.89;105671;1256;61147;-46
2023/07/15 05:44:17;;;;;;;15.30;3.10;;;;;;;23.37;100.00;100576.12;105623;1253;72659;-46
2023/07/15 05:46:45;;;;;;;9.70;3.90;;;;;;;23.57;100.00;100580.67;105615;1259;64079;-47
2023/07/15 05:49:13;;;;;;;12.00;4.00;;;;;;;23.60;100.00;100598.98;105642;1259;72651;-45
2023/07/15 05:51:41;;;;;;;4.60;4.00;;;;;;;23.56;100.00;100612.44;105583;1254;60444;-45
2023/07/15 05:54:08;;;;;;;13.50;4.00;;;;;;;23.59;100.00;100618.27;105607;1258;60425;-45
2023/07/15 05:56:37;;;;;;;10.80;3.90;;;;;;;23.70;100.00;100615.88;105649;1255;72601;-45
2023/07/15 05:59:04;;;;;;;7.30;2.80;;;;;;;23.81;100.00;100623.17;105626;1258;64490;-46
2023/07/15 06:01:33;;;;;;;3.80;3.20;;;;;;;23.82;100.00;100637.89;105668;1254;72679;-45
2023/07/15 06:04:00;;;;;;;10.40;3.40;;;;;;;23.70;100.00;100644.42;105632;1259;60463;-46
2023/07/15 06:06:28;;;;;;;5.50;2.90;;;;;;;23.85;100.00;100639.48;105647;1254;60467;-45
2023/07/15 06:08:56;;;;;;;7.80;3.00;;;;;;;23.99;100.00;100639.88;105671;1254;73889;-44
2023/07/15 06:11:24;;;;;;;6.40;3.00;;;;;;;23.97;100.00;100649.88;105622;1254;65170;-44
2023/07/15 06:13:52;;;;;;;4.50;3.20;;;;;;;23.99;100.00;100645.16;105644;1258;71943;-46
2023/07/15 06:16:19;;;;;;;9.20;3.50;;;;;;;24.02;100.00;100666.64;105679;1260;60606;-47
2023/07/15 06:18:47;;;;;;;8.50;3.70;;;;;;;24.00;100.00;100678.27;105652;1258;60431;-45
2023/07/15 06:21:15;;;;;;;5.20;3.80;;;;;;;23.96;100.00;100685.16;105635;1254;73909;-46
2023/07/15 06:23:43;;;;;;;7.70;3.90;;;;;;;24.00;100.00;100677.70;105645;1254;63926;-45
2023/07/15 06:26:11;;;;;;;9.90;4.20;;;;;;;24.09;100.00;100664.55;105655;1257;71710;-47
2023/07/15 06:28:39;;;;;;;6.80;4.00;;;;;;;24.16;100.00;100671.67;105611;1259;61666;-44
2023/07/15 06:31:07;;;;;;;15.10;4.00;;;;;;;24.18;100.00;100670.59;105630;1258;60461;-47
2023/07/15 06:33:36;;;;;;;15.60;5.20;;;;;;;24.19;100.00;100678.31;105665;1255;73864;-46
2023/07/15 06:36:03;;;;;;;9.40;4.00;;;;;;;24.18;100.00;100681.17;105638;1259;63594;-45
2023/07/15 06:38:31;;;;;;;6.70;4.30;;;;;;;24.25;100.00;100680.40;105664;1254;72648;-45
2023/07/15 06:40:59;;;;;;;12.20;4.40;;;;;;;24.26;100.00;100690.34;105605;1255;60559;-44
2023/07/15 06:43:26;;;;;;;5.10;3.60;;;;;;;24.24;100.00;100698.23;105693;1258;60343;-46
2023/07/15 06:45:54;;;;;;;11.90;3.30;;;;;;;24.19;100.00;100707.24;105680;1254;73119;-46
2023/07/15 06:48:22;;;;;;;13.50;2.80;;;;;;;24.11;100.00;100714.11;105602;1254;63966;-45
2023/07/15 06:50:50;;;;;;;13.50;2.80;;;;;;;24.03;100.00;100713.48;105656;1256;72669;-47
2023/07/15 06:53:19;;;;;;;7.70;2.90;;;;;;;23.95;100.00;100716.85;105633;1255;60457;-46
2023/07/15 06:55:46;;;;;;;7.30;3.30;;;;;;;23.93;100.00;100716.80;105623;1256;60494;-45
2023/07/15 06:58:14;;;;;;;9.80;2.90;;;;;;;23.85;100.00;100709.06;105639;1259;72259;-46
2023/07/15 07:00:42;;;;;;;7.70;2.30;;;;;;;23.82;100.00;100723.89;105651;1258;64026;-45
2023/07/15 07:03:09;;;;;;;7.30;2.90;;;;;;;23.82;100.00;100743.25;105629;1254;72594;-44
2023/07/15 07:05:37;;;;;;;6.10;2.40;;;;;;;23.96;100.00;100738.61;105653;1259;60798;-45
2023/07/15 07:08:05;;;;;;;6.60;2.10;;;;;;;24.21;100.00;100722.60;105680;1258;60873;-44
2023/07/15 07:10:33;;;;;;;11.70;2.60;;;;;;;24.41;100.00;100711.64;105656;1258;72910;-45
2023/07/15 07:13:01;;;;;;;14.40;3.00;;;;;;;24.55;100.00;100698.28;105610;1254;64297;-46
2023/07/15 07:15:29;;;;;;;6.50;1.90;;;;;;;24.53;100.00;100713.60;105582;1258;71401;-45
2023/07/15 07:17:57;;;;;;;4.90;2.10;;;;;;;24.60;100.00;100726.16;105647;1256;60554;-45
2023/07/15 07:20:25;;;;;;;2.10;1.70;;;;;;;24.64;99.31;100702.73;105627;1258;60423;-45
2023/07/15 07:22:53;;;;;;;4.20;2.20;;;;;;;24.62;100.00;100719.77;105629;1254;74322;-44
2023/07/15 07:25:21;;;;;;;11.70;2.60;;;;;;;24.67;100.00;100727.40;105610;1258;64046;-47
2023/07/15 07:27:48;;;;;;;3.90;2.00;;;;;;;24.70;100.00;100731.63;105393;1258;325036;-43
2023/07/15 07:32:26;;;;;;;3.10;1.80;;;;;;;24.79;94.19;100721.95;102625;1292;600203;-45
2023/07/15 07:34:55;;;;;;;4.40;2.10;;;;;;;24.76;95.13;100732.73;104829;1274;60027;-46
2023/07/15 07:37:23;;;;;;;9.80;2.00;;;;;;;24.81;98.68;100743.16;104852;1273;59338;-44
2023/07/15 07:39:51;;;;;;;3.10;2.00;;;;;;;24.88;100.00;100747.60;105249;1266;70688;-45
2023/07/15 07:42:19;;;;;;;9.00;2.50;;;;;;;25.02;100.00;100741.23;105234;1266;63920;-46
2023/07/15 07:44:47;;;;;;;3.10;2.90;;;;;;;25.12;100.00;100756.89;105263;1260;71697;-47
2023/07/15 07:47:15;;;;;;;3.40;2.80;;;;;;;25.13;100.00;100762.15;105340;1272;218594;-46
2023/07/15 07:49:43;;;;;;;7.60;3.00;;;;;;;25.18;100.00;100758.99;105485;1263;59321;-47
2023/07/15 07:52:11;;;;;;;6.00;3.10;;;;;;;25.15;100.00;100748.77;105459;1262;72265;-44
2023/07/15 07:54:40;;;;;;;7.50;2.80;;;;;;;25.17;100.00;100749.65;105491;1258;64354;-44
2023/07/15 07:57:10;;;;;;;4.90;1.90;;;;;;;25.36;100.00;100731.84;105471;1262;72668;-44
2023/07/15 07:59:37;;;;;;;5.70;1.90;;;;;;;25.51;94.13;100692.53;105488;1261;59688;-45
2023/07/15 08:02:05;;;;;;;3.80;1.70;;;;;;;25.59;80.13;100685.55;105509;1263;59674;-44
2023/07/15 08:04:33;;;;;;;9.40;2.00;;;;;;;25.77;75.92;100673.59;105495;1262;72824;-46
2023/07/15 08:07:01;;;;;;;9.60;1.70;;;;;;;25.92;73.11;100673.48;105707;1254;63920;-47
2023/07/15 08:09:28;;;;;;;3.60;2.00;;;;;;;25.94;73.13;100697.34;105706;1256;71364;-45
2023/07/15 08:11:58;;;;;;;2.50;1.60;;;;;;;25.86;68.94;100661.17;105691;1260;60003;-44
2023/07/15 08:14:26;;;;;;;4.80;1.50;;;;;;;25.81;67.74;100660.89;105702;1255;59611;-45
2023/07/15 08:16:54;;;;;;;7.50;1.80;;;;;;;25.74;65.81;100645.69;105706;1260;71802;-44
2023/07/15 08:19:22;;;;;;;2.60;1.50;;;;;;;25.73;66.42;100668.05;105767;1259;63948;-45
2023/07/15 08:21:50;;;;;;;13.00;2.20;;;;;;;25.76;65.18;100658.60;105686;1257;72657;-45
2023/07/15 08:24:18;;;;;;;3.90;2.00;;;;;;;25.79;66.25;100690.19;105642;1259;59675;-46
2023/07/15 08:26:46;;;;;;;5.20;1.80;;;;;;;25.93;65.61;100679.88;105687;1260;60053;-45
2023/07/15 08:29:14;;;;;;;2.90;1.80;;;;;;;26.09;63.71;100636.69;105719;1254;71745;-45
2023/07/15 08:31:42;;;;;;;2.90;2.20;;;;;;;26.20;60.79;100597.69;105683;1254;63952;-45
2023/07/15 08:34:10;;;;;;;13.20;4.40;;;;;;;26.21;61.76;100639.30;105664;1257;71454;-44
2023/07/15 08:36:37;;;;;;;5.50;3.40;;;;;;;26.18;60.91;100623.85;105664;1257;59643;-45
2023/07/15 08:39:06;;;;;;;5.40;1.90;;;;;;;26.16;58.74;100571.33;105667;1254;59568;-48
2023/07/15 08:41:33;;;;;;;4.50;1.50;;;;;;;26.07;59.47;100614.96;105636;1254;71796;-44
2023/07/15 08:44:01;;;;;;;4.60;1.90;;;;;;;26.09;62.21;100692.38;105619;1260;64019;-46
2023/07/15 08:46:30;;;;;;;4.20;2.60;;;;;;;26.29;72.44;100804.21;105670;1255;72677;-45
2023/07/15 08:48:59;;;;;;;3.20;2.20;;;;;;;26.57;76.97;100780.40;105644;1254;60666;-45
2023/07/15 08:51:31;;;;;;;8.50;3.70;;;;;;;26.82;74.53;100750.42;105693;1260;59638;-45
2023/07/15 08:54:03;;;;;;;7.70;2.90;;;;;;;26.96;61.94;100570.30;105658;1254;72814;-45
2023/07/15 08:56:34;;;;;;;7.00;1.90;;;;;;;26.76;60.28;100589.50;105665;1254;63938;-47
2023/07/15 08:59:05;;;;;;;6.40;2.50;;;;;;;26.75;64.00;100684.11;105696;1258;72695;-46
2023/07/15 09:01:36;;;;;;;8.80;3.20;;;;;;;26.81;73.24;100786.04;105692;1257;60106;-47
2023/07/15 09:04:06;;;;;;;4.80;2.80;;;;;;;26.82;78.57;100776.07;105696;1259;59746;-45
2023/07/15 09:06:34;;;;;;;5.90;3.10;;;;;;;26.76;80.21;100777.65;105691;1253;71768;-45
2023/07/15 09:09:05;;;;;;;3.60;2.30;;;;;;;26.75;84.33;100772.98;105629;1254;64321;-44
2023/07/15 09:11:41;;;;;;;3.50;2.50;;;;;;;26.83;79.29;100755.33;105641;1259;71082;-44
2023/07/15 09:14:15;;;;;;;5.60;2.80;;;;;;;26.92;77.00;100754.03;105698;1256;59695;-45
2023/07/15 09:16:43;;;;;;;8.40;2.80;;;;;;;26.88;78.52;100765.50;105748;1260;59673;-45
2023/07/15 09:19:11;;;;;;;3.90;2.00;;;;;;;26.91;84.03;100760.83;105669;1254;72209;-47
2023/07/15 09:21:50;;;;;;;8.30;2.80;;;;;;;27.13;73.86;100729.65;105635;1261;63913;-47
2023/07/15 09:24:18;;;;;;;6.70;2.50;;;;;;;27.26;76.52;100761.31;105663;1260;71415;-46
2023/07/15 09:26:53;;;;;;;5.50;2.60;;;;;;;27.22;77.13;100762.19;105631;1254;59963;-46
2023/07/15 09:29:21;;;;;;;4.50;2.50;;;;;;;27.13;78.25;100774.12;105671;1259;59995;-46
2023/07/15 09:31:49;;;;;;;10.40;2.80;;;;;;;27.05;86.58;100791.80;105683;1260;72449;-46
2023/07/15 09:34:22;;;;;;;3.00;2.60;;;;;;;27.03;82.53;100767.66;105698;1260;63949;-47
2023/07/15 09:36:51;;;;;;;5.00;2.20;;;;;;;27.02;94.70;100788.81;105649;1260;71508;-47
2023/07/15 09:39:22;;;;;;;4.90;2.40;;;;;;;27.17;85.18;100760.67;105716;1256;59740;-46
2023/07/15 09:42:01;;;;;;;3.60;2.40;;;;;;;27.15;81.11;100755.14;105680;1259;59626;-48
2023/07/15 09:44:47;;;;;;;6.30;2.50;;;;;;;26.92;80.61;100764.69;105706;1254;71801;-45
2023/07/15 09:47:16;;;;;;;6.20;2.60;;;;;;;26.71;79.96;100759.10;105640;1259;64052;-45
2023/07/15 09:49:43;;;;;;;3.90;2.10;;;;;;;26.50;82.40;100769.98;105706;1260;71353;-45
2023/07/15 09:52:11;;;;;;;4.70;2.10;;;;;;;26.37;94.87;100790.09;105680;1255;59819;-45
2023/07/15 09:54:39;;;;;;;5.30;2.40;;;;;;;26.38;100.00;100785.46;105703;1260;59715;-47
2023/07/15 09:57:14;;;;;;;3.40;2.00;;;;;;;26.45;91.48;100757.88;105663;1260;72140;-45
2023/07/15 09:59:44;;;;;;;4.00;2.00;;;;;;;26.56;83.96;100749.20;105691;1253;65155;-47
2023/07/15 10:02:34;;;;;;;8.60;2.30;;;;;;;26.56;76.36;100723.13;105682;1259;71437;-46
2023/07/15 10:05:03;;;;;;;5.50;2.20;;;;;;;26.49;78.39;100758.45;105650;1255;59721;-46
2023/07/15 10:07:32;;;;;;;3.50;2.00;;;;;;;26.52;79.86;100763.63;105698;1259;59660;-45
2023/07/15 12:00:27;;;;;;;7.00;1.40;;;;;;;27.70;60.87;100582.84;102689;1290;615660;-45
2023/07/15 12:03:13;;;;;;;3.30;1.50;;;;;;;27.61;58.51;100553.73;104991;1279;60164;-44
2023/07/15 12:05:40;;;;;;;1.60;1.40;;;;;;;27.44;58.76;100583.89;105036;1268;60161;-45
2023/07/15 12:08:12;;;;;;;7.60;1.70;;;;;;;27.32;60.07;100644.13;104835;1267;71215;-45
2023/07/15 12:10:50;;;;;;;4.00;1.60;;;;;;;27.33;61.23;100676.27;104983;1269;65323;-45
2023/07/15 12:13:18;;;;;;;3.10;1.60;;;;;;;27.45;60.50;100654.84;104920;1263;354045;-45
2023/07/15 12:15:44;;;;;;;3.00;1.40;;;;;;;27.47;57.53;100560.61;105234;1269;60151;-45
2023/07/15 12:18:12;;;;;;;1.80;1.40;;;;;;;27.43;58.35;100605.21;105255;1267;60367;-45
2023/07/15 12:20:39;;;;;;;4.50;1.50;;;;;;;27.53;58.88;100625.84;105240;1266;70923;-45
2023/07/15 12:23:07;;;;;;;1.60;1.50;;;;;;;27.58;58.90;100624.73;105226;1268;64823;-45
2023/07/15 12:25:35;;;;;;;3.80;1.50;;;;;;;27.58;59.99;100666.16;105242;1269;72703;-45
2023/07/15 12:28:02;;;;;;;4.70;1.60;;;;;;;27.65;58.33;100603.86;105229;1267;60100;-46
2023/07/15 12:30:29;;;;;;;4.30;1.30;;;;;;;27.53;57.36;100575.83;105215;1264;61444;-46
2023/07/15 12:32:56;;;;;;;2.80;1.30;;;;;;;27.32;56.77;100570.23;105162;1268;73070;-45
2023/07/15 12:35:23;;;;;;;3.10;1.30;;;;;;;27.04;55.84;100557.46;105176;1267;65553;-46
2023/07/15 12:37:51;;;;;;;7.80;1.30;;;;;;;26.90;58.11;100652.41;105221;1264;74212;-46
2023/07/15 12:40:18;;;;;;;1.90;1.50;;;;;;;27.08;59.26;100682.05;105274;1267;60445;-46
2023/07/15 12:42:45;;;;;;;2.90;1.20;;;;;;;27.30;56.97;100582.29;105221;1263;60186;-45
2023/07/15 12:45:14;;;;;;;4.10;1.30;;;;;;;27.42;55.68;100538.22;105229;1267;71790;-45
2023/07/15 12:47:42;;;;;;;2.50;1.00;;;;;;;27.59;56.26;100578.36;105218;1267;65325;-45
2023/07/15 12:50:10;;;;;;;5.40;1.40;;;;;;;27.74;55.65;100556.60;105245;1263;72608;-46
2023/07/15 12:52:37;;;;;;;4.80;1.80;;;;;;;27.70;54.80;100523.33;105225;1276;61160;-46
2023/07/15 12:55:05;;;;;;;7.80;1.40;;;;;;;27.67;54.41;100509.46;105216;1264;60153;-45
2023/07/15 12:57:34;;;;;;;6.50;2.10;;;;;;;27.62;54.42;100524.95;105251;1264;73075;-46
2023/07/15 13:00:02;;;;;;;1.20;0.90;;;;;;;27.62;54.67;100539.06;105252;1269;67197;-45
2023/07/15 13:02:29;;;;;;;3.50;1.50;;;;;;;27.67;54.80;100548.55;105210;1269;73121;-46
2023/07/15 13:04:56;;;;;;;3.70;1.30;;;;;;;27.62;54.11;100522.80;105231;1267;60203;-46
2023/07/15 13:07:23;;;;;;;3.50;1.30;;;;;;;27.48;54.83;100573.23;105229;1263;60301;-45
2023/07/15 13:09:53;;;;;;;5.60;1.70;;;;;;;27.32;55.13;100588.48;105192;1267;72886;-45
2023/07/15 13:12:20;;;;;;;5.90;4.20;;;;;;;27.08;56.39;100657.63;105222;1269;65397;-45